Date,TemperatureHighF,TemperatureAvgF,TemperatureLowF,DewpointHighF,DewpointAvgF,DewpointLowF,HumidityHigh,HumidityAvg,HumidityLow,PressureMaxIn,PressureMinIn,WindSpeedMaxMPH,WindSpeedAvgMPH,GustSpeedMaxMPH,PrecipitationSumIn
2013-3-1,33.8,29.2,25.7,27.0,24.8,23.0,91,84,71,29.82,29.75,8,2,13,0.00
2013-3-2,37.9,29.3,21.9,26.0,23.4,17.0,92,79,59,29.79,29.74,8,2,18,0.01
2013-3-3,30.0,22.9,17.8,18.0,14.3,11.0,81,70,57,29.84,29.75,12,3,20,0.00
2013-3-4,49.8,34.2,19.5,25.0,12.6,1.0,73,46,13,29.98,29.83,9,2,15,0.00
2013-3-5,42.8,40.1,31.0,41.0,32.6,25.0,95,76,52,29.98,29.57,8,2,22,1.04
2013-3-6,30.4,25.7,21.5,25.0,21.0,17.0,90,82,74,29.96,29.54,22,5,32,0.00
2013-3-7,44.2,31.4,23.4,31.0,23.9,20.0,90,75,57,30.11,29.94,21,5,24,0.00
2013-3-8,51.5,38.5,26.6,24.0,17.4,2.0,78,44,24,30.19,30.08,10,3,17,0.00
2013-3-9,56.9,45.7,35.7,27.0,21.3,10.0,51,39,29,30.22,30.16,5,1,8,0.00
2013-3-10,59.4,49.5,41.9,34.0,30.5,25.0,60,49,37,30.20,30.11,6,1,9,0.00
2013-3-11,49.5,46.5,44.0,48.0,43.4,34.0,96,89,60,30.13,29.83,8,2,13,0.95
2013-3-12,49.5,44.2,37.2,48.0,35.4,26.0,96,73,44,29.94,29.75,11,3,20,0.31
2013-3-13,41.3,34.3,24.6,29.0,22.2,15.0,75,62,45,30.01,29.93,14,3,22,0.00
2013-3-14,42.7,30.5,20.2,18.0,13.7,10.0,73,52,31,30.13,30.01,12,2,17,0.00
2013-3-15,63.7,48.0,30.8,41.0,30.3,13.0,77,53,27,30.07,29.91,10,2,18,0.00
2013-3-16,71.8,60.7,52.1,46.0,42.9,40.0,65,53,36,29.90,29.78,17,4,24,0.00
2013-3-17,70.0,56.6,39.3,49.0,44.5,38.0,94,66,40,30.00,29.87,7,3,13,0.00
2013-3-18,43.9,35.6,32.0,43.0,34.6,31.0,97,96,94,30.01,29.82,10,2,12,0.54
2013-3-19,50.3,43.3,34.8,44.0,28.8,10.0,97,62,33,30.00,29.80,11,3,27,0.02
2013-3-20,48.9,37.4,28.4,27.0,12.0,8.0,90,37,22,29.99,29.77,8,2,18,0.00
2013-3-21,31.1,25.1,17.7,21.0,10.6,5.0,75,55,43,29.82,29.66,11,3,23,0.00
2013-3-22,46.1,33.4,23.0,27.0,13.9,5.0,62,46,22,29.93,29.82,11,2,17,0.00
2013-3-23,51.6,42.4,35.3,39.0,34.4,28.0,92,74,60,29.94,29.84,3,1,9,0.04
2013-3-24,40.3,36.9,34.3,38.0,35.7,33.0,96,95,85,29.86,29.56,13,5,24,0.65
2013-3-25,32.1,27.9,24.1,22.0,21.0,20.0,89,76,63,29.76,29.50,20,4,35,0.00
2013-3-26,34.8,27.6,22.9,29.0,21.6,18.0,88,78,66,30.04,29.74,10,3,28,0.10
2013-3-27,40.5,30.9,24.0,24.0,21.3,18.0,86,69,46,30.11,30.02,8,2,16,0.02
2013-3-28,46.2,35.7,26.5,25.0,20.1,17.0,75,55,32,30.18,30.08,7,2,17,0.00
2013-3-29,54.0,39.9,32.0,35.0,26.0,17.0,91,61,27,30.21,30.13,7,2,15,0.05
2013-3-30,57.3,46.2,37.7,43.0,38.8,35.0,93,77,56,30.14,30.02,8,1,14,0.61
2013-3-31,61.7,49.8,43.9,51.0,45.4,38.0,96,86,60,30.01,29.83,11,2,21,0.49